aviador You're here:

FSIA Decoded Metar

MAHE in SEYCHELLES
Report Time2018-02-18 21:00:00
UTC Time2018-02-18 21:56:10
Flight Rules vfr VFR
Wind260° at 04 kt
W.Decomp.*RWY 31: 2.8 kt HW 2.8 kt LCW
W.Rank260° ranks 14
Current wind is below 260° avg. (5.6)
Visibility9999 m
Phenomena:N/A
Clouds:N/A
Expected CloudBase > 1,600 ft AGL from Temp-Dew spread
CeilingNone
Temp27°C (ISA +12)
Dew Point23°C (79% RH)
Heat Index29.6°C
QNH1009 hPa
Density Alt1,900 ft
Elevation10 ft
Report Wrong Elevation
Raw Report
FSIA 182100Z AUTO 26004KT 220V320 CAVOK 27/23 Q1009=

Extra information for FSIA:More info

Metar Taf Metar & Taf Last 4 Metars F.Rules Stats Wind Profile Meteogram Temp Stats Airport Information Weather charts Add Link Nearby VenuesMetar ALERT Operation Metar Decoded Social comments